Time;durP1;ratioP1;P1;durP2;ratioP2;P2;SDS_P1;SDS_P2;PMS_P1;PMS_P2;Temp;Humidity;BMP_temperature;BMP_pressure;BME280_temperature;BME280_humidity;BME280_pressure;Samples;Min_cycle;Max_cycle;Signal;HPM_P1;HPM_P2
2022/09/14 00:01:20;;;;;;;6.28;1.73;;;18.00;66.90;;;;;;5029397;28;20240;-59
2022/09/14 00:04:03;;;;;;;5.82;1.50;;;18.10;99.90;;;;;;5047247;28;20724;-59
2022/09/14 00:06:30;;;;;;;7.53;1.42;;;18.00;64.50;;;;;;5046296;28;20188;-59
2022/09/14 00:08:59;;;;;;;6.45;1.77;;;18.00;80.00;;;;;;5045864;28;20204;-59
2022/09/14 00:11:29;;;;;;;6.90;1.90;;;17.90;76.10;;;;;;5028703;28;20254;-58
2022/09/14 00:13:57;;;;;;;5.30;1.25;;;17.90;93.50;;;;;;5044349;28;20235;-58
2022/09/14 00:16:33;;;;;;;3.83;1.65;;;17.80;75.30;;;;;;5043555;28;20701;-58
2022/09/14 00:19:04;;;;;;;4.00;1.35;;;18.00;99.90;;;;;;5026459;28;20199;-63
2022/09/14 00:21:34;;;;;;;7.35;2.05;;;17.90;84.80;;;;;;5045836;28;20241;-58
2022/09/14 00:24:01;;;;;;;11.02;2.28;;;17.90;87.00;;;;;;5047091;28;20278;-58
2022/09/14 00:26:28;;;;;;;5.93;1.60;;;17.90;86.80;;;;;;5046416;28;20612;-58
2022/09/14 00:28:57;;;;;;;6.57;1.48;;;17.80;82.80;;;;;;5047458;28;20194;-58
2022/09/14 00:31:25;;;;;;;6.07;1.77;;;17.80;84.80;;;;;;5047009;28;20265;-58
2022/09/14 00:33:52;;;;;;;7.32;1.67;;;17.80;83.20;;;;;;5041613;28;20205;-58
2022/09/14 00:36:25;;;;;;;7.00;2.17;;;17.70;79.80;;;;;;5045024;28;20194;-58
2022/09/14 00:38:55;;;;;;;7.07;1.73;;;17.70;99.80;;;;;;5041689;28;20977;-58
2022/09/14 00:41:26;;;;;;;8.20;1.60;;;17.90;88.00;;;;;;5046988;28;20199;-59
2022/09/14 00:43:57;;;;;;;3.53;1.40;;;17.80;99.90;;;;;;5047688;28;20218;-59
2022/09/14 00:46:28;;;;;;;4.03;1.27;;;17.80;79.90;;;;;;5048418;28;20322;-58
2022/09/14 00:48:59;;;;;;;6.82;1.73;;;17.80;86.50;;;;;;5047747;28;20203;-59
2022/09/14 00:51:28;;;;;;;4.38;1.40;;;17.90;99.90;;;;;;5047950;28;20235;-58
2022/09/14 00:53:55;;;;;;;4.22;1.38;;;18.00;99.90;;;;;;5047272;28;20195;-58
2022/09/14 00:56:22;;;;;;;6.47;1.50;;;18.00;90.30;;;;;;5046233;28;20215;-58
2022/09/14 00:58:50;;;;;;;5.90;1.60;;;17.90;89.50;;;;;;5046536;28;20192;-58
2022/09/14 01:01:18;;;;;;;8.95;1.60;;;18.00;99.90;;;;;;5046596;28;20203;-58
2022/09/14 01:03:45;;;;;;;5.97;1.50;;;17.90;84.00;;;;;;5048029;28;20742;-59
2022/09/14 01:06:30;;;;;;;5.30;1.50;;;17.80;91.10;;;;;;5029978;28;20203;-58
2022/09/14 01:09:32;;;;;;;9.88;1.90;;;17.70;93.00;;;;;;5046845;28;20231;-59
2022/09/14 01:12:19;;;;;;;6.03;1.50;;;17.50;96.50;;;;;;5139934;23;20263;-60
2022/09/14 01:14:49;;;;;;;4.40;1.80;;;17.40;99.90;;;;;;5021813;28;20192;-60
2022/09/14 01:17:38;;;;;;;6.45;1.50;;;17.60;99.90;;;;;;5021867;28;20203;-60
2022/09/14 01:20:21;;;;;;;6.90;1.60;;;17.70;99.90;;;;;;5022111;28;20192;-61
2022/09/14 01:23:08;;;;;;;7.22;1.70;;;17.70;99.90;;;;;;5022028;28;20188;-60
2022/09/14 01:25:44;;;;;;;8.18;1.75;;;17.80;99.90;;;;;;5022593;28;20211;-60
2022/09/14 01:28:21;;;;;;;5.53;1.50;;;17.80;99.90;;;;;;5021608;28;20176;-59
2022/09/14 01:30:52;;;;;;;6.93;1.63;;;17.70;99.90;;;;;;5024710;28;20302;-59
2022/09/14 01:33:35;;;;;;;5.10;1.40;;;17.70;99.90;;;;;;5024203;28;20250;-60
2022/09/14 01:36:05;;;;;;;6.32;1.40;;;17.70;99.90;;;;;;5024990;28;20223;-60
2022/09/14 01:38:44;;;;;;;5.97;1.40;;;17.60;99.90;;;;;;5021785;28;20689;-61
2022/09/14 01:41:14;;;;;;;6.68;1.70;;;17.60;99.90;;;;;;5023060;28;20199;-61
2022/09/14 01:43:49;;;;;;;6.40;1.63;;;17.60;99.90;;;;;;4999854;28;20623;-61
2022/09/14 01:46:20;;;;;;;12.00;2.15;;;17.50;99.90;;;;;;5008329;28;20223;-61
2022/09/14 01:49:15;;;;;;;7.50;1.65;;;17.60;99.90;;;;;;5020453;28;20193;-61
2022/09/14 01:52:05;;;;;;;8.18;1.52;;;17.50;99.90;;;;;;5027267;28;20264;-61
2022/09/14 01:55:22;;;;;;;7.03;1.40;;;17.60;99.90;;;;;;5028947;28;20640;-60
2022/09/14 01:58:04;;;;;;;6.32;1.88;;;17.50;99.90;;;;;;4965115;28;20202;-61
2022/09/14 02:00:32;;;;;;;5.60;1.65;;;17.40;99.90;;;;;;4963423;28;20203;-61
2022/09/14 02:03:09;;;;;;;6.13;1.30;;;17.30;99.90;;;;;;4999939;28;20200;-60
2022/09/14 02:05:50;;;;;;;7.75;2.00;;;17.30;99.90;;;;;;5027988;28;20219;-61
2022/09/14 02:08:17;;;;;;;5.72;1.40;;;17.40;99.90;;;;;;5029295;28;20195;-61
2022/09/14 02:10:44;;;;;;;9.48;1.95;;;17.30;99.90;;;;;;5027411;28;20659;-61
2022/09/14 02:13:11;;;;;;;7.88;1.65;;;17.30;99.90;;;;;;5022217;28;20344;-61
2022/09/14 02:15:38;;;;;;;9.10;1.75;;;17.40;99.90;;;;;;5007211;28;20209;-61
2022/09/14 02:18:05;;;;;;;6.78;1.70;;;17.40;99.90;;;;;;5005490;28;20195;-61
2022/09/14 02:20:43;;;;;;;6.00;1.45;;;17.30;99.90;;;;;;5008714;28;20207;-61
2022/09/14 02:23:10;;;;;;;5.80;1.80;;;17.40;99.90;;;;;;4992528;28;20295;-60
2022/09/14 02:25:39;;;;;;;8.05;2.00;;;17.40;99.90;;;;;;5010426;28;20197;-60
2022/09/14 02:28:07;;;;;;;5.93;1.60;;;17.30;99.90;;;;;;4991772;28;20204;-60
2022/09/14 02:31:05;;;;;;;10.38;2.50;;;17.30;99.90;;;;;;5009375;28;20311;-60
2022/09/14 02:33:52;;;;;;;9.38;1.63;;;17.30;99.90;;;;;;5025581;28;20211;-60
2022/09/14 02:36:39;;;;;;;5.00;1.50;;;17.20;99.90;;;;;;5009447;28;20196;-60
2022/09/14 02:39:36;;;;;;;6.72;1.70;;;17.20;99.90;;;;;;4970631;28;20216;-60
2022/09/14 02:42:25;;;;;;;4.70;1.40;;;17.20;99.90;;;;;;5007964;28;20203;-60
2022/09/14 02:44:57;;;;;;;8.80;1.70;;;17.10;99.90;;;;;;5007797;28;20205;-61
2022/09/14 02:47:32;;;;;;;5.82;1.90;;;17.10;99.90;;;;;;5009204;28;20220;-58
2022/09/14 02:50:08;;;;;;;4.70;1.67;;;17.20;99.90;;;;;;4992438;28;20239;-58
2022/09/14 02:52:59;;;;;;;10.63;1.70;;;17.20;99.90;;;;;;5007784;28;20223;-58
2022/09/14 02:55:33;;;;;;;3.00;1.25;;;17.20;99.90;;;;;;4997972;28;20288;-58
2022/09/14 02:58:06;;;;;;;5.05;1.65;;;17.30;99.90;;;;;;5021401;28;20188;-60
2022/09/14 03:00:39;;;;;;;6.57;1.77;;;17.30;99.90;;;;;;5006105;28;20216;-61
2022/09/14 03:03:09;;;;;;;8.23;1.90;;;17.20;99.90;;;;;;5007418;28;20260;-60
2022/09/14 03:05:36;;;;;;;7.30;2.10;;;17.20;99.90;;;;;;5005351;28;20321;-61
2022/09/14 03:08:04;;;;;;;10.18;1.77;;;17.30;99.90;;;;;;4990044;28;20213;-61
2022/09/14 03:10:32;;;;;;;6.80;1.63;;;17.30;99.90;;;;;;5024138;28;20220;-61
2022/09/14 03:13:00;;;;;;;6.68;1.85;;;17.30;99.90;;;;;;4990463;28;20787;-61
2022/09/14 03:15:27;;;;;;;7.43;2.15;;;17.40;99.90;;;;;;5005417;28;20205;-60
2022/09/14 03:17:54;;;;;;;6.13;1.60;;;17.40;99.90;;;;;;5004598;28;20659;-60
2022/09/14 03:20:24;;;;;;;6.65;1.80;;;17.40;99.90;;;;;;5006984;28;21131;-60
2022/09/14 03:22:51;;;;;;;6.78;1.90;;;17.50;99.90;;;;;;5007440;28;20201;-60
2022/09/14 03:25:19;;;;;;;9.82;1.85;;;17.60;99.90;;;;;;5007575;28;20200;-60
2022/09/14 03:27:50;;;;;;;6.55;1.95;;;17.60;99.90;;;;;;5007812;28;20629;-60
2022/09/14 03:30:18;;;;;;;7.47;2.00;;;17.50;99.90;;;;;;5007996;28;20275;-60
2022/09/14 03:32:45;;;;;;;4.97;1.85;;;17.40;99.90;;;;;;5007793;28;20227;-59
2022/09/14 03:35:14;;;;;;;8.60;2.03;;;17.30;99.90;;;;;;5000244;28;20251;-60
2022/09/14 03:37:43;;;;;;;7.40;1.95;;;17.30;99.90;;;;;;4999985;28;20204;-60
2022/09/14 03:40:13;;;;;;;7.75;1.77;;;17.20;99.90;;;;;;5006665;28;20200;-60
2022/09/14 03:42:49;;;;;;;9.45;1.95;;;17.30;99.90;;;;;;5006633;28;20734;-60
2022/09/14 03:45:17;;;;;;;5.18;1.60;;;17.40;99.90;;;;;;5007556;28;20200;-61
2022/09/14 03:47:45;;;;;;;4.75;1.80;;;17.40;99.90;;;;;;5006604;28;20208;-61
2022/09/14 03:50:14;;;;;;;4.72;1.65;;;17.40;99.90;;;;;;5007328;28;21120;-61
2022/09/14 03:52:41;;;;;;;5.57;1.90;;;17.50;99.90;;;;;;5006992;28;20328;-60
2022/09/14 03:55:09;;;;;;;6.68;1.95;;;17.50;99.90;;;;;;5006866;28;20575;-61
2022/09/14 03:57:36;;;;;;;7.38;2.00;;;17.60;99.90;;;;;;5004230;28;20228;-61
2022/09/14 04:00:05;;;;;;;7.00;1.80;;;17.70;99.90;;;;;;5006490;28;20784;-61
2022/09/14 04:02:37;;;;;;;10.32;1.77;;;17.70;99.90;;;;;;5006049;28;20205;-61
2022/09/14 04:05:05;;;;;;;5.88;1.92;;;17.70;99.90;;;;;;4990055;28;20300;-61
2022/09/14 04:07:32;;;;;;;6.03;1.88;;;17.70;99.90;;;;;;4989480;28;20219;-61
2022/09/14 04:09:59;;;;;;;5.00;1.70;;;17.70;99.90;;;;;;5006549;28;20683;-61
2022/09/14 04:12:26;;;;;;;8.73;1.70;;;17.80;99.90;;;;;;5006355;28;20244;-60
2022/09/14 04:14:53;;;;;;;5.53;2.00;;;17.80;99.90;;;;;;5005760;28;20227;-60
2022/09/14 04:17:23;;;;;;;10.60;1.90;;;17.70;99.90;;;;;;5022042;28;20203;-61
2022/09/14 04:19:50;;;;;;;6.40;2.67;;;17.70;99.90;;;;;;5006619;28;20211;-61
2022/09/14 04:22:17;;;;;;;4.95;2.20;;;17.70;99.90;;;;;;5002877;28;20192;-59
2022/09/14 04:24:44;;;;;;;7.68;1.83;;;17.70;99.90;;;;;;5002652;28;20749;-61
2022/09/14 04:27:11;;;;;;;4.70;2.10;;;17.70;99.90;;;;;;5003467;28;20904;-60
2022/09/14 04:29:38;;;;;;;7.70;2.05;;;17.60;99.90;;;;;;5005909;28;20325;-60
2022/09/14 04:32:05;;;;;;;8.60;2.20;;;17.70;99.90;;;;;;5006112;28;20212;-61
2022/09/14 04:34:32;;;;;;;7.38;1.88;;;17.50;99.90;;;;;;5006530;28;20201;-61
2022/09/14 04:36:58;;;;;;;5.32;1.90;;;17.40;99.90;;;;;;5006458;28;20203;-61
2022/09/14 04:39:25;;;;;;;8.05;2.25;;;17.40;99.90;;;;;;4986830;28;20600;-61
2022/09/14 04:41:52;;;;;;;7.70;2.55;;;17.50;99.90;;;;;;5002589;28;20212;-61
2022/09/14 04:44:19;;;;;;;7.00;2.47;;;17.30;99.90;;;;;;5003869;28;20200;-61
2022/09/14 04:46:46;;;;;;;13.77;2.25;;;17.30;99.90;;;;;;5005996;28;20211;-61
2022/09/14 04:49:17;;;;;;;4.70;2.10;;;17.20;99.90;;;;;;5021433;28;20202;-61
2022/09/14 04:51:44;;;;;;;6.93;2.17;;;17.10;99.90;;;;;;5004015;28;20636;-61
2022/09/14 04:54:14;;;;;;;14.93;2.05;;;17.20;99.90;;;;;;5022121;28;20201;-61
2022/09/14 04:56:41;;;;;;;6.95;3.15;;;17.10;99.90;;;;;;5020573;28;20220;-61
2022/09/14 04:59:09;;;;;;;7.95;2.17;;;17.20;99.90;;;;;;4986551;28;20858;-61
2022/09/14 05:01:39;;;;;;;10.55;1.92;;;17.10;99.90;;;;;;5006039;28;20227;-61
2022/09/14 05:04:08;;;;;;;4.95;2.30;;;17.00;99.90;;;;;;5005507;28;20275;-61
2022/09/14 05:06:37;;;;;;;10.30;2.50;;;17.00;1.00;;;;;;5002985;28;20231;-60
2022/09/14 05:09:08;;;;;;;7.60;2.00;;;17.10;99.90;;;;;;5016820;28;20671;-61
2022/09/14 05:11:36;;;;;;;7.93;2.47;;;17.10;99.90;;;;;;5001711;28;20296;-61
2022/09/14 05:14:04;;;;;;;9.50;2.08;;;17.10;1.00;;;;;;5003573;28;20560;-61
2022/09/14 05:16:36;;;;;;;9.95;2.60;;;17.20;1.00;;;;;;5005474;28;20204;-59
2022/09/14 05:19:05;;;;;;;6.72;2.20;;;17.30;1.00;;;;;;5004578;28;20200;-59
2022/09/14 05:21:34;;;;;;;9.98;2.35;;;17.40;1.00;;;;;;5004998;28;20201;-60
2022/09/14 05:24:11;;;;;;;9.18;2.60;;;17.30;1.00;;;;;;5003857;28;20674;-60
2022/09/14 05:26:38;;;;;;;6.03;2.00;;;17.20;1.00;;;;;;5004046;28;20188;-60
2022/09/14 05:29:05;;;;;;;6.38;2.00;;;17.30;1.00;;;;;;5019123;28;20189;-59
2022/09/14 05:31:32;;;;;;;9.80;3.67;;;17.20;1.00;;;;;;5003969;28;20204;-59
2022/09/14 05:33:59;;;;;;;10.75;3.05;;;17.20;1.00;;;;;;5005025;28;20196;-59
2022/09/14 05:36:26;;;;;;;10.45;5.72;;;17.20;1.00;;;;;;5005033;28;20734;-59
2022/09/14 05:38:53;;;;;;;6.30;4.38;;;17.10;1.00;;;;;;5001286;28;20201;-60
2022/09/14 05:41:20;;;;;;;11.30;5.68;;;17.20;1.00;;;;;;5003466;28;20197;-62
2022/09/14 05:43:47;;;;;;;8.63;4.13;;;17.30;1.00;;;;;;4980035;28;20770;-61
2022/09/14 05:46:19;;;;;;;10.85;3.65;;;17.20;1.00;;;;;;5019955;28;20309;-61
2022/09/14 05:48:47;;;;;;;6.45;1.70;;;17.20;1.00;;;;;;5013029;28;20348;-61
2022/09/14 05:51:16;;;;;;;5.32;1.63;;;17.20;1.00;;;;;;4998484;28;20522;-61
2022/09/14 05:53:48;;;;;;;6.63;2.00;;;17.20;1.00;;;;;;5000337;28;20276;-61
2022/09/14 05:56:16;;;;;;;8.63;2.50;;;17.20;1.00;;;;;;5002380;28;20199;-62
2022/09/14 05:58:44;;;;;;;6.50;1.83;;;17.30;1.00;;;;;;5002574;28;20596;-61
2022/09/14 06:01:19;;;;;;;7.43;2.05;;;17.20;1.00;;;;;;5013465;28;20533;-62
2022/09/14 06:03:47;;;;;;;9.57;2.10;;;17.10;1.00;;;;;;5005567;28;20272;-61
2022/09/14 06:06:16;;;;;;;8.43;2.10;;;17.10;1.00;;;;;;5020453;28;20300;-61
2022/09/14 06:08:44;;;;;;;5.43;1.90;;;16.90;1.00;;;;;;5003255;28;20193;-61
2022/09/14 06:11:17;;;;;;;9.20;2.58;;;17.00;1.00;;;;;;5018984;28;20992;-61
2022/09/14 06:13:45;;;;;;;5.28;1.98;;;17.10;1.00;;;;;;4975538;28;20221;-61
2022/09/14 06:16:17;;;;;;;5.82;2.05;;;17.00;1.00;;;;;;4983722;28;20201;-61
2022/09/14 06:18:46;;;;;;;12.05;2.00;;;17.00;1.00;;;;;;4977202;28;20200;-61
2022/09/14 06:21:18;;;;;;;7.18;2.20;;;17.10;1.00;;;;;;4981777;28;20198;-62
2022/09/14 06:23:46;;;;;;;8.68;2.05;;;17.10;1.00;;;;;;4984504;28;20665;-61
2022/09/14 06:26:13;;;;;;;6.80;2.17;;;17.00;1.00;;;;;;4980348;28;20213;-61
2022/09/14 06:28:40;;;;;;;10.23;2.33;;;17.10;1.00;;;;;;4981748;28;20202;-61
2022/09/14 06:31:11;;;;;;;8.43;2.20;;;17.10;1.00;;;;;;4997095;28;20653;-61
2022/09/14 06:33:42;;;;;;;5.57;2.25;;;17.10;1.00;;;;;;4984377;28;20241;-61
2022/09/14 06:36:11;;;;;;;8.85;2.35;;;17.10;1.00;;;;;;4984071;28;20527;-62
2022/09/14 06:38:39;;;;;;;7.00;2.28;;;16.90;1.00;;;;;;4968041;28;20711;-62
2022/09/14 06:41:11;;;;;;;8.48;2.95;;;17.00;1.00;;;;;;4987602;28;20204;-61
2022/09/14 06:43:41;;;;;;;6.78;2.45;;;17.10;1.00;;;;;;4977033;28;20216;-61
2022/09/14 06:46:18;;;;;;;7.47;4.85;;;17.10;1.00;;;;;;4984717;28;20559;-61
2022/09/14 06:48:51;;;;;;;7.93;3.85;;;17.20;1.00;;;;;;4986776;28;20216;-61
2022/09/14 06:51:23;;;;;;;10.32;4.55;;;17.20;1.00;;;;;;4984984;28;20197;-61
2022/09/14 06:53:51;;;;;;;7.57;4.00;;;17.20;1.00;;;;;;4987093;28;20269;-61
2022/09/14 06:56:18;;;;;;;6.57;3.40;;;17.20;1.00;;;;;;4988393;28;20625;-62
2022/09/14 06:58:45;;;;;;;8.48;3.50;;;17.20;1.00;;;;;;4976444;28;20198;-61
2022/09/14 07:01:14;;;;;;;12.02;6.78;;;17.20;1.00;;;;;;4986272;28;20297;-61
2022/09/14 07:03:43;;;;;;;10.75;5.22;;;17.30;1.00;;;;;;4982261;28;20237;-61
2022/09/14 07:06:13;;;;;;;6.90;2.78;;;17.20;1.00;;;;;;4984980;28;20197;-61
2022/09/14 07:08:40;;;;;;;7.13;3.00;;;17.20;1.00;;;;;;4984375;28;20621;-61
2022/09/14 07:11:09;;;;;;;8.45;2.60;;;17.20;1.00;;;;;;4984452;28;20209;-61
2022/09/14 07:13:37;;;;;;;8.80;2.55;;;17.20;1.00;;;;;;5007033;28;20247;-61
2022/09/14 07:16:04;;;;;;;6.53;2.50;;;17.20;1.00;;;;;;4993910;28;20282;-61
2022/09/14 07:18:31;;;;;;;6.50;2.30;;;17.10;1.00;;;;;;4988875;28;20553;-61
2022/09/14 07:21:16;;;;;;;11.63;2.72;;;17.20;1.00;;;;;;4996514;28;20194;-61
2022/09/14 07:23:44;;;;;;;8.60;2.85;;;17.20;1.00;;;;;;4990937;28;20194;-61
2022/09/14 07:26:20;;;;;;;8.75;2.50;;;17.30;1.00;;;;;;4992578;28;20201;-61
2022/09/14 07:28:50;;;;;;;7.20;2.15;;;17.20;1.00;;;;;;4993175;28;20558;-61
2022/09/14 07:31:21;;;;;;;7.45;2.13;;;17.20;1.00;;;;;;4989440;28;20209;-61
2022/09/14 07:33:52;;;;;;;5.50;1.83;;;17.10;8.40;;;;;;4992766;28;20637;-61
2022/09/14 07:36:23;;;;;;;6.07;1.95;;;17.20;1.00;;;;;;4995555;28;20276;-61
2022/09/14 07:38:51;;;;;;;6.35;2.40;;;17.20;12.00;;;;;;4994895;28;20200;-61
2022/09/14 07:41:21;;;;;;;10.27;2.40;;;17.30;1.00;;;;;;4994119;28;20262;-61
2022/09/14 07:43:50;;;;;;;7.40;2.30;;;17.10;2.20;;;;;;4994344;28;20285;-61
2022/09/14 07:46:17;;;;;;;7.55;2.10;;;17.20;1.00;;;;;;4995068;28;20193;-61
2022/09/14 07:48:44;;;;;;;7.57;2.80;;;17.10;1.00;;;;;;4991911;28;20198;-61
2022/09/14 07:51:11;;;;;;;7.75;2.13;;;17.20;1.00;;;;;;4988485;28;20203;-61
2022/09/14 07:53:43;;;;;;;8.48;2.15;;;17.40;1.00;;;;;;4986983;28;20308;-61
2022/09/14 07:56:12;;;;;;;7.10;2.13;;;17.40;1.00;;;;;;4977720;28;20215;-61
2022/09/14 07:58:39;;;;;;;9.90;2.17;;;17.10;1.00;;;;;;4989595;28;20941;-61
2022/09/14 08:01:10;;;;;;;7.35;2.47;;;17.20;1.00;;;;;;4990935;28;20198;-61
2022/09/14 08:03:39;;;;;;;6.72;2.10;;;17.40;7.40;;;;;;4979944;28;20194;-61
2022/09/14 08:06:09;;;;;;;5.65;2.00;;;17.60;1.00;;;;;;4991404;28;20209;-60
2022/09/14 08:08:40;;;;;;;7.32;2.03;;;17.80;1.00;;;;;;4993951;28;20210;-60
2022/09/14 08:11:10;;;;;;;7.97;2.20;;;17.30;1.00;;;;;;4993634;28;20201;-61
2022/09/14 08:13:43;;;;;;;5.85;2.13;;;17.00;1.00;;;;;;5000508;28;20263;-61
2022/09/14 08:16:11;;;;;;;6.18;1.80;;;16.70;4.40;;;;;;4981498;28;20231;-61
2022/09/14 08:18:38;;;;;;;8.00;2.10;;;16.90;99.90;;;;;;4985181;28;20940;-61
2022/09/14 08:21:11;;;;;;;3.78;1.80;;;17.10;99.90;;;;;;5004578;28;20240;-61
2022/09/14 08:23:39;;;;;;;9.02;2.00;;;17.20;99.90;;;;;;5003159;28;20879;-61
2022/09/14 08:26:12;;;;;;;6.07;2.00;;;17.40;99.90;;;;;;5000909;28;20212;-61
2022/09/14 08:28:40;;;;;;;5.88;2.38;;;17.50;22.70;;;;;;5002484;28;20189;-61
2022/09/14 08:31:16;;;;;;;7.07;1.92;;;17.50;99.90;;;;;;5003631;28;20209;-61
2022/09/14 08:33:46;;;;;;;9.85;2.08;;;17.50;99.90;;;;;;5003499;28;20208;-61
2022/09/14 08:36:15;;;;;;;6.50;1.90;;;17.50;37.70;;;;;;4986830;28;20203;-62
2022/09/14 08:38:42;;;;;;;4.28;1.80;;;17.60;99.90;;;;;;5004129;28;20209;-62
2022/09/14 08:41:27;;;;;;;6.03;1.70;;;17.50;93.40;;;;;;4986194;28;20551;-61
2022/09/14 08:44:04;;;;;;;3.67;1.42;;;17.30;1.00;;;;;;4985091;28;20228;-61
2022/09/14 08:46:35;;;;;;;6.28;2.45;;;17.20;99.90;;;;;;5002600;28;20244;-63
2022/09/14 08:49:15;;;;;;;9.10;2.25;;;17.20;99.90;;;;;;5003601;28;20201;-64
2022/09/14 08:51:41;;;;;;;6.10;3.38;;;16.80;99.90;;;;;;5004028;28;20660;-63
2022/09/14 08:54:09;;;;;;;10.65;4.75;;;16.60;1.00;;;;;;5002975;28;20212;-62
2022/09/14 08:56:40;;;;;;;12.93;3.60;;;16.70;1.00;;;;;;5005331;28;20319;-63
2022/09/14 08:59:16;;;;;;;10.70;3.85;;;16.40;72.20;;;;;;5003588;28;20654;-64
2022/09/14 09:02:14;;;;;;;7.60;2.13;;;16.30;1.00;;;;;;5004365;28;20197;-64
2022/09/14 09:04:49;;;;;;;11.00;4.93;;;16.30;1.00;;;;;;4993114;28;20201;-64
2022/09/14 09:07:30;;;;;;;6.35;2.42;;;16.40;1.00;;;;;;5000175;28;20288;-64
2022/09/14 09:09:58;;;;;;;8.65;3.15;;;16.50;1.00;;;;;;5001276;28;20197;-64
2022/09/14 09:12:49;;;;;;;6.20;2.17;;;16.50;1.00;;;;;;5001539;28;20283;-64
2022/09/14 09:15:19;;;;;;;5.80;1.80;;;16.40;99.90;;;;;;5000072;28;20204;-64
2022/09/14 09:17:54;;;;;;;7.03;2.20;;;16.50;99.90;;;;;;5002162;28;20290;-64
2022/09/14 09:20:44;;;;;;;5.68;2.25;;;16.50;1.00;;;;;;4983821;28;20596;-64
2022/09/14 09:23:15;;;;;;;4.10;2.03;;;16.00;99.90;;;;;;5002540;28;20232;-64
2022/09/14 09:26:03;;;;;;;4.68;1.83;;;15.50;1.00;;;;;;4995624;28;20601;-63
2022/09/14 09:28:30;;;;;;;5.15;2.58;;;15.50;1.00;;;;;;4997802;28;20208;-64
2022/09/14 09:31:03;;;;;;;6.80;2.40;;;15.10;1.00;;;;;;5001553;28;20257;-63
2022/09/14 09:33:50;;;;;;;12.63;2.93;;;15.10;1.00;;;;;;5002666;28;20568;-63
2022/09/14 09:36:21;;;;;;;7.63;2.87;;;15.10;1.00;;;;;;4984987;28;20200;-63
2022/09/14 09:38:48;;;;;;;9.13;2.80;;;15.40;48.80;;;;;;4989720;28;20221;-63
2022/09/14 09:41:22;;;;;;;7.10;2.80;;;15.50;1.00;;;;;;4983324;28;20660;-62
2022/09/14 09:44:05;;;;;;;8.07;2.88;;;15.60;1.00;;;;;;5001005;28;20196;-63
2022/09/14 09:46:36;;;;;;;8.38;3.80;;;15.60;99.90;;;;;;5001391;28;20231;-62
2022/09/14 09:49:16;;;;;;;5.93;2.58;;;15.50;99.90;;;;;;4998990;28;20276;-62
2022/09/14 09:51:43;;;;;;;5.60;2.88;;;15.70;1.00;;;;;;5001336;28;20219;-63
2022/09/14 09:54:14;;;;;;;6.78;3.10;;;16.10;99.90;;;;;;4984025;28;20216;-63
2022/09/14 09:56:52;;;;;;;8.82;3.08;;;16.20;1.00;;;;;;4993787;28;20648;-61
2022/09/14 09:59:29;;;;;;;7.07;3.05;;;16.40;1.00;;;;;;4996209;28;20189;-63
2022/09/14 10:02:21;;;;;;;3.25;2.38;;;16.40;1.00;;;;;;4999018;28;20576;-63
2022/09/14 10:05:32;;;;;;;6.38;3.13;;;16.50;1.00;;;;;;5001528;28;20193;-63
2022/09/14 10:08:05;;;;;;;7.13;2.53;;;16.30;99.90;;;;;;4959898;28;20210;-63
2022/09/14 10:10:41;;;;;;;5.45;2.33;;;16.50;99.90;;;;;;4982388;28;20230;-63
2022/09/14 10:13:27;;;;;;;13.30;7.13;;;16.50;99.90;;;;;;4987421;28;20252;-62
2022/09/14 10:16:13;;;;;;;11.90;7.45;;;16.60;34.20;;;;;;4959189;28;20352;-63
2022/09/14 10:18:46;;;;;;;14.60;6.82;;;16.70;1.00;;;;;;4988252;28;20186;-63
2022/09/14 10:21:20;;;;;;;9.52;4.55;;;16.60;99.90;;;;;;5002093;28;20704;-64
2022/09/14 10:24:06;;;;;;;7.10;3.20;;;16.50;1.00;;;;;;4987530;28;20215;-62
2022/09/14 10:26:35;;;;;;;7.53;2.67;;;16.50;1.00;;;;;;4988166;28;20276;-63
2022/09/14 10:29:26;;;;;;;11.05;5.90;;;16.40;99.90;;;;;;4979090;28;20373;-63
2022/09/14 10:32:01;;;;;;;7.78;2.90;;;16.30;1.00;;;;;;4982529;28;20236;-63
2022/09/14 10:34:28;;;;;;;9.07;5.15;;;16.50;1.00;;;;;;4987139;28;20217;-61
2022/09/14 10:37:08;;;;;;;6.93;3.33;;;16.50;1.00;;;;;;4984875;28;20208;-61
2022/09/14 10:39:47;;;;;;;5.78;3.20;;;16.70;1.00;;;;;;4986598;28;20703;-61
2022/09/14 10:42:39;;;;;;;4.00;2.78;;;16.80;1.00;;;;;;4985001;28;20201;-63
2022/09/14 10:45:21;;;;;;;6.18;2.45;;;16.80;1.00;;;;;;4985436;28;20340;-63
2022/09/14 10:48:17;;;;;;;10.32;3.40;;;16.70;1.00;;;;;;4987250;28;20273;-63
2022/09/14 10:51:22;;;;;;;7.65;3.13;;;16.20;1.00;;;;;;4976295;28;20201;-60
2022/09/14 10:54:12;;;;;;;4.80;2.88;;;15.90;99.90;;;;;;4942328;28;20235;-62
2022/09/14 10:57:16;;;;;;;5.72;3.15;;;15.70;99.90;;;;;;4985302;28;20212;-63
2022/09/14 11:00:17;;;;;;;10.00;3.15;;;15.70;1.00;;;;;;4987491;28;20192;-62
2022/09/14 11:03:15;;;;;;;8.85;3.28;;;15.60;1.00;;;;;;4964951;28;20193;-62
2022/09/14 11:05:56;;;;;;;6.15;3.22;;;15.40;52.10;;;;;;4968473;28;20276;-62
2022/09/14 11:08:44;;;;;;;11.73;3.97;;;15.40;1.00;;;;;;4986108;28;20202;-63
2022/09/14 11:11:23;;;;;;;7.90;3.67;;;15.40;41.50;;;;;;4984460;28;20209;-63
2022/09/14 11:14:11;;;;;;;7.13;3.70;;;15.50;1.00;;;;;;4986838;28;20636;-62
2022/09/14 11:16:52;;;;;;;8.53;3.60;;;15.60;1.00;;;;;;4985852;28;20197;-61
2022/09/14 11:19:59;;;;;;;6.65;4.40;;;15.50;1.00;;;;;;4986010;28;20204;-61
2022/09/14 11:22:40;;;;;;;11.32;4.40;;;15.90;1.00;;;;;;4984781;28;21294;-61
2022/09/14 11:25:27;;;;;;;8.55;6.50;;;16.10;1.00;;;;;;4994658;28;20197;-61
2022/09/14 11:27:59;;;;;;;7.28;4.45;;;16.30;1.00;;;;;;4984737;28;20189;-61
2022/09/14 11:30:39;;;;;;;8.38;3.65;;;16.40;99.90;;;;;;4985353;28;20200;-61
2022/09/14 11:33:10;;;;;;;5.22;3.25;;;16.40;1.00;;;;;;4984955;28;20201;-62
2022/09/14 11:35:49;;;;;;;6.20;4.43;;;16.40;1.00;;;;;;4981180;28;20194;-63
2022/09/14 11:38:20;;;;;;;8.80;4.72;;;16.40;1.00;;;;;;4983094;28;20193;-62
2022/09/14 11:40:56;;;;;;;7.07;3.60;;;16.50;1.00;;;;;;4984001;28;20193;-63
2022/09/14 11:43:48;;;;;;;4.78;3.40;;;16.60;99.90;;;;;;4980978;28;20207;-63
2022/09/14 11:46:21;;;;;;;5.05;3.42;;;16.60;99.90;;;;;;4981100;28;20198;-63
2022/09/14 11:49:00;;;;;;;6.35;3.47;;;16.60;1.00;;;;;;4984341;28;20197;-63
2022/09/14 11:51:55;;;;;;;4.50;2.95;;;16.50;1.00;;;;;;4983798;28;20317;-63
2022/09/14 11:54:23;;;;;;;5.53;3.35;;;16.50;1.00;;;;;;4984720;28;20201;-62
2022/09/14 11:56:58;;;;;;;8.10;4.03;;;16.50;1.00;;;;;;4983258;28;20198;-63
2022/09/14 11:59:39;;;;;;;7.07;3.35;;;16.60;49.40;;;;;;4983035;28;20207;-63
2022/09/14 12:02:28;;;;;;;8.10;3.63;;;16.70;1.00;;;;;;4980929;28;20213;-63
2022/09/14 12:05:09;;;;;;;5.72;4.38;;;16.60;1.00;;;;;;4984068;28;20190;-62
2022/09/14 12:07:42;;;;;;;18.02;13.77;;;16.40;1.00;;;;;;4998722;28;20264;-62
2022/09/14 12:10:18;;;;;;;16.42;14.35;;;16.60;1.00;;;;;;4981453;28;20201;-61
2022/09/14 12:13:17;;;;;;;19.60;13.98;;;16.70;99.90;;;;;;4991923;28;20275;-62
2022/09/14 12:15:44;;;;;;;8.68;6.80;;;17.10;1.00;;;;;;5003468;28;20204;-61
2022/09/14 12:18:15;;;;;;;7.13;4.97;;;17.20;1.00;;;;;;5014809;28;21194;-59
2022/09/14 12:20:45;;;;;;;6.50;4.25;;;17.30;1.00;;;;;;5002962;28;20219;-59
2022/09/14 12:23:38;;;;;;;12.27;9.30;;;17.40;1.00;;;;;;5004797;28;20209;-59
2022/09/14 12:26:05;;;;;;;10.63;8.70;;;17.50;1.00;;;;;;4999200;28;22554;-61
2022/09/14 12:28:35;;;;;;;12.65;7.38;;;17.70;1.00;;;;;;5001231;28;20675;-60
2022/09/14 12:31:01;;;;;;;9.50;6.93;;;17.90;99.90;;;;;;5005400;28;20488;-63
2022/09/14 12:33:32;;;;;;;6.55;5.43;;;17.90;99.90;;;;;;5021593;28;20225;-63
2022/09/14 12:36:02;;;;;;;7.20;5.25;;;18.00;99.90;;;;;;5003159;28;20283;-60
2022/09/14 12:38:31;;;;;;;10.45;4.97;;;18.10;1.00;;;;;;5005097;28;20667;-60
2022/09/14 12:40:59;;;;;;;8.77;4.25;;;18.00;1.00;;;;;;5004173;28;20296;-60
2022/09/14 12:43:32;;;;;;;6.13;4.07;;;18.00;1.00;;;;;;5002700;28;20211;-65
2022/09/14 12:46:04;;;;;;;7.72;4.20;;;17.60;99.90;;;;;;5006450;28;20276;-61
2022/09/14 12:48:46;;;;;;;7.22;4.53;;;17.50;1.00;;;;;;5004201;28;20280;-61
2022/09/14 12:51:31;;;;;;;5.82;4.28;;;17.80;1.00;;;;;;5007582;28;20279;-62
2022/09/14 12:54:07;;;;;;;6.10;4.10;;;17.90;1.00;;;;;;5004131;28;20216;-63
2022/09/14 12:56:55;;;;;;;4.35;3.50;;;18.30;99.90;;;;;;5003074;28;20192;-62
2022/09/14 12:59:52;;;;;;;3.90;3.35;;;18.10;99.90;;;;;;4982451;28;20220;-62
2022/09/14 13:02:46;;;;;;;6.88;4.40;;;18.00;99.90;;;;;;5005401;28;20688;-62
2022/09/14 13:05:16;;;;;;;5.75;3.85;;;17.80;99.90;;;;;;5000887;28;20245;-61
2022/09/14 13:07:44;;;;;;;4.95;3.67;;;17.60;99.90;;;;;;5006625;28;20622;-63
2022/09/14 13:10:45;;;;;;;6.50;3.83;;;17.80;1.00;;;;;;5005002;28;20652;-61
2022/09/14 13:13:16;;;;;;;7.75;3.47;;;17.90;1.00;;;;;;5003461;28;20236;-62
2022/09/14 13:15:49;;;;;;;4.78;3.08;;;17.60;26.20;;;;;;5004178;28;20220;-63
2022/09/14 13:18:16;;;;;;;4.18;2.88;;;17.20;99.90;;;;;;5006496;28;20666;-63
2022/09/14 13:20:56;;;;;;;7.32;3.70;;;17.10;1.00;;;;;;5003048;28;20224;-60
2022/09/14 13:23:43;;;;;;;6.45;4.60;;;17.10;1.00;;;;;;5004630;28;20275;-60
2022/09/14 13:26:15;;;;;;;6.18;4.40;;;17.00;1.00;;;;;;5020993;28;20201;-62